Time;durP1;ratioP1;P1;durP2;ratioP2;P2;SDS_P1;SDS_P2;PMS_P1;PMS_P2;Temp;Humidity;BMP_temperature;BMP_pressure;BME280_temperature;BME280_humidity;BME280_pressure;Samples;Min_cycle;Max_cycle;Signal;HPM_P1;HPM_P2
2022/05/28 00:02:17;;;;;;;4.82;1.02;;;11.70;82.30;;;;;;5006013;28;20482;-58
2022/05/28 00:04:45;;;;;;;5.50;1.75;;;11.60;82.50;;;;;;5002730;28;20497;-57
2022/05/28 00:07:11;;;;;;;6.68;1.50;;;11.40;82.70;;;;;;5002856;28;20397;-57
2022/05/28 00:09:37;;;;;;;5.43;1.70;;;11.20;83.50;;;;;;5002430;28;20474;-57
2022/05/28 00:12:03;;;;;;;6.50;1.75;;;11.10;84.20;;;;;;4998520;28;20046;-57
2022/05/28 00:14:29;;;;;;;2.92;1.20;;;11.10;84.70;;;;;;5009547;28;20092;-57
2022/05/28 00:16:56;;;;;;;3.17;1.52;;;11.10;85.10;;;;;;5008786;28;20026;-57
2022/05/28 00:19:22;;;;;;;5.95;1.23;;;11.10;85.10;;;;;;4995623;28;20030;-57
2022/05/28 00:21:48;;;;;;;5.78;1.25;;;11.10;84.90;;;;;;5007685;28;20030;-58
2022/05/28 00:24:13;;;;;;;3.72;1.25;;;11.10;84.30;;;;;;5009391;28;20025;-58
2022/05/28 00:26:42;;;;;;;9.98;2.08;;;11.10;83.80;;;;;;4997569;28;20037;-58
2022/05/28 00:29:08;;;;;;;5.25;0.98;;;11.10;83.90;;;;;;4996579;28;20034;-58
2022/05/28 00:31:33;;;;;;;5.57;1.20;;;11.10;83.40;;;;;;5009380;28;20103;-58
2022/05/28 00:33:59;;;;;;;3.30;1.00;;;11.10;82.90;;;;;;5006821;28;20168;-58
2022/05/28 00:36:25;;;;;;;4.57;1.00;;;11.00;83.70;;;;;;5009312;28;20033;-58
2022/05/28 00:38:51;;;;;;;10.32;1.67;;;11.00;83.70;;;;;;4999454;28;20018;-59
2022/05/28 00:41:17;;;;;;;6.40;1.05;;;10.90;83.20;;;;;;5003100;28;20033;-58
2022/05/28 00:43:44;;;;;;;7.63;1.30;;;10.90;81.40;;;;;;5006011;28;20021;-58
2022/05/28 00:46:12;;;;;;;1.90;0.95;;;10.80;80.60;;;;;;5009041;28;20030;-58
2022/05/28 00:48:44;;;;;;;5.55;1.30;;;10.80;82.80;;;;;;5009951;28;20540;-58
2022/05/28 00:51:18;;;;;;;2.60;0.73;;;10.80;83.50;;;;;;5010264;28;20553;-58
2022/05/28 00:53:44;;;;;;;2.03;1.13;;;10.70;83.10;;;;;;4996018;28;20529;-59
2022/05/28 00:56:11;;;;;;;4.38;1.00;;;10.70;83.00;;;;;;5008965;28;20120;-58
2022/05/28 00:58:37;;;;;;;5.55;1.75;;;10.70;82.70;;;;;;5009791;28;20030;-58
2022/05/28 01:01:05;;;;;;;2.78;1.15;;;10.70;83.00;;;;;;5008596;28;20026;-58
2022/05/28 01:03:59;;;;;;;4.57;0.80;;;10.80;83.00;;;;;;5007184;28;20034;-58
2022/05/28 01:06:59;;;;;;;1.88;0.90;;;10.80;82.30;;;;;;4995911;28;20029;-58
2022/05/28 01:09:44;;;;;;;5.72;1.00;;;10.70;81.40;;;;;;4988809;28;20033;-58
2022/05/28 01:12:14;;;;;;;3.83;1.52;;;10.80;82.30;;;;;;5009239;28;20096;-59
2022/05/28 01:15:19;;;;;;;3.90;0.80;;;10.70;81.30;;;;;;4999767;28;20033;-58
2022/05/28 01:17:52;;;;;;;1.75;0.55;;;10.70;82.80;;;;;;4987921;28;20034;-59
2022/05/28 01:20:24;;;;;;;4.68;1.00;;;10.70;83.10;;;;;;4996630;28;20125;-58
2022/05/28 01:23:13;;;;;;;8.35;1.88;;;10.60;83.10;;;;;;4990846;28;20026;-58
2022/05/28 01:25:48;;;;;;;7.95;1.00;;;10.60;83.60;;;;;;5001641;28;20116;-58
2022/05/28 01:28:18;;;;;;;3.95;0.90;;;10.60;82.80;;;;;;5005094;28;20022;-58
2022/05/28 01:30:46;;;;;;;3.08;0.82;;;10.60;83.20;;;;;;5008224;28;20037;-59
2022/05/28 01:33:14;;;;;;;4.93;0.80;;;10.60;83.50;;;;;;4999975;28;20425;-58
2022/05/28 01:35:41;;;;;;;2.83;1.05;;;10.50;83.40;;;;;;5008563;28;20034;-59
2022/05/28 01:38:09;;;;;;;6.65;1.15;;;10.50;83.40;;;;;;5007589;28;20056;-58
2022/05/28 01:40:35;;;;;;;5.70;0.77;;;10.50;83.90;;;;;;5012788;28;20042;-58
2022/05/28 01:43:07;;;;;;;2.83;0.82;;;10.40;84.50;;;;;;5008150;28;20030;-58
2022/05/28 01:45:34;;;;;;;4.22;0.75;;;10.40;84.00;;;;;;5006631;28;20101;-58
2022/05/28 01:48:05;;;;;;;3.05;1.08;;;10.40;85.00;;;;;;5011066;28;20030;-59
2022/05/28 01:50:37;;;;;;;2.63;0.70;;;10.30;85.20;;;;;;5008833;28;20116;-57
2022/05/28 01:53:04;;;;;;;;;;;10.30;85.00;;;;;;5009936;28;20112;-58
2022/05/28 01:55:35;;;;;;;3.53;1.13;;;10.20;85.60;;;;;;5011701;28;19959;-58
2022/05/28 01:58:01;;;;;;;4.22;1.00;;;10.10;86.00;;;;;;5006726;28;20026;-58
2022/05/28 02:00:28;;;;;;;7.47;0.93;;;10.10;86.00;;;;;;5011686;28;20033;-58
2022/05/28 02:02:58;;;;;;;2.75;0.80;;;10.10;86.70;;;;;;5009004;28;20025;-58
2022/05/28 02:05:24;;;;;;;6.45;0.88;;;10.00;86.80;;;;;;5002962;28;20022;-58
2022/05/28 02:07:49;;;;;;;3.78;1.48;;;10.00;86.90;;;;;;5010986;28;20192;-58
2022/05/28 02:10:18;;;;;;;2.28;0.73;;;10.00;86.80;;;;;;5012477;28;20546;-59
2022/05/28 02:13:02;;;;;;;2.20;0.95;;;9.90;86.90;;;;;;5010954;28;20093;-58
2022/05/28 02:15:43;;;;;;;2.10;0.80;;;9.90;85.90;;;;;;5010480;28;20036;-58
2022/05/28 02:18:18;;;;;;;6.32;0.93;;;9.80;86.50;;;;;;5012435;28;20509;-58
2022/05/28 02:21:07;;;;;;;1.85;0.47;;;9.90;85.00;;;;;;4999315;28;20026;-58
2022/05/28 02:23:43;;;;;;;3.47;0.75;;;9.90;85.90;;;;;;4998404;28;20065;-58
2022/05/28 02:26:25;;;;;;;6.72;0.90;;;9.90;86.90;;;;;;5002423;28;20034;-58
2022/05/28 02:28:52;;;;;;;5.13;0.98;;;9.90;86.80;;;;;;5010360;28;20025;-58
2022/05/28 02:31:24;;;;;;;3.55;0.77;;;9.90;84.80;;;;;;5009670;28;20064;-59
2022/05/28 02:33:50;;;;;;;3.53;0.90;;;9.90;87.20;;;;;;5010249;28;20477;-58
2022/05/28 02:36:17;;;;;;;2.53;0.73;;;9.90;87.60;;;;;;5007004;28;20042;-58
2022/05/28 02:38:43;;;;;;;1.75;0.70;;;9.80;87.60;;;;;;5004699;28;20049;-59
2022/05/28 02:41:09;;;;;;;5.32;0.75;;;9.80;88.00;;;;;;5010554;28;20112;-58
2022/05/28 02:43:36;;;;;;;4.60;0.93;;;9.80;88.00;;;;;;5011608;28;20121;-58
2022/05/28 02:46:03;;;;;;;3.08;0.73;;;9.80;88.10;;;;;;5010049;28;20029;-58
2022/05/28 02:48:29;;;;;;;3.33;1.17;;;9.80;88.40;;;;;;5007948;28;20485;-58
2022/05/28 02:51:09;;;;;;;5.43;0.80;;;9.80;88.80;;;;;;5009279;28;20046;-57
2022/05/28 02:53:35;;;;;;;3.70;1.27;;;9.80;89.30;;;;;;5008591;28;20382;-59
2022/05/28 02:56:01;;;;;;;5.72;0.98;;;9.70;89.50;;;;;;5004937;28;20026;-58
2022/05/28 02:58:27;;;;;;;4.03;1.10;;;9.50;90.10;;;;;;5005548;28;20045;-57
2022/05/28 03:00:53;;;;;;;4.70;1.52;;;9.40;90.60;;;;;;5008935;28;20506;-58
2022/05/28 03:03:19;;;;;;;5.97;1.67;;;9.40;91.10;;;;;;5011483;28;20112;-58
2022/05/28 03:05:50;;;;;;;4.82;1.02;;;9.30;91.20;;;;;;4994150;28;20035;-58
2022/05/28 03:08:16;;;;;;;6.75;1.02;;;9.30;91.60;;;;;;5009779;28;20033;-58
2022/05/28 03:10:42;;;;;;;6.65;1.20;;;9.30;91.70;;;;;;5011730;28;20085;-57
2022/05/28 03:13:07;;;;;;;6.47;1.20;;;9.20;92.00;;;;;;5009039;28;20040;-58
2022/05/28 03:15:33;;;;;;;4.50;1.20;;;9.10;92.20;;;;;;5011301;28;20029;-58
2022/05/28 03:18:00;;;;;;;4.53;0.85;;;9.10;92.70;;;;;;5006373;28;20048;-58
2022/05/28 03:20:29;;;;;;;2.85;0.90;;;9.00;92.90;;;;;;5005029;28;20494;-58
2022/05/28 03:22:56;;;;;;;3.63;0.95;;;9.10;93.30;;;;;;5009085;28;20045;-58
2022/05/28 03:25:22;;;;;;;7.82;0.93;;;9.20;93.10;;;;;;5010859;28;20044;-58
2022/05/28 03:27:47;;;;;;;4.90;1.20;;;9.30;93.10;;;;;;5008520;28;20025;-59
2022/05/28 03:30:14;;;;;;;4.80;1.00;;;9.30;92.90;;;;;;5011370;28;20108;-58
2022/05/28 03:32:39;;;;;;;3.67;0.68;;;9.30;93.00;;;;;;5010511;28;20040;-58
2022/05/28 03:35:06;;;;;;;5.28;0.85;;;9.30;92.90;;;;;;5007230;28;20395;-59
2022/05/28 03:37:32;;;;;;;6.78;1.73;;;9.40;92.80;;;;;;5004767;28;20371;-58
2022/05/28 03:39:57;;;;;;;5.80;0.98;;;9.40;93.00;;;;;;5008467;28;20025;-58
2022/05/28 03:42:23;;;;;;;5.03;1.02;;;9.30;92.90;;;;;;5010014;28;20489;-58
2022/05/28 03:44:49;;;;;;;4.75;0.73;;;9.20;93.10;;;;;;5008883;28;20034;-59
2022/05/28 03:47:15;;;;;;;2.60;1.05;;;9.20;93.20;;;;;;5009914;28;20112;-58
2022/05/28 03:49:42;;;;;;;8.30;1.10;;;9.20;93.20;;;;;;5010735;28;20053;-58
2022/05/28 03:52:09;;;;;;;5.47;1.10;;;9.30;92.90;;;;;;5008639;28;20044;-58
2022/05/28 03:54:35;;;;;;;4.07;1.42;;;9.30;92.90;;;;;;5008305;28;20041;-58
2022/05/28 03:57:07;;;;;;;2.60;0.90;;;9.30;93.00;;;;;;5006365;28;20021;-59
2022/05/28 03:59:34;;;;;;;2.92;0.90;;;9.20;93.00;;;;;;5010598;28;20022;-59
2022/05/28 04:02:01;;;;;;;4.25;0.98;;;9.20;93.40;;;;;;5006735;28;20042;-59
2022/05/28 04:04:27;;;;;;;3.80;1.33;;;9.10;93.40;;;;;;5010189;28;20028;-59
2022/05/28 04:06:53;;;;;;;4.00;0.80;;;9.10;93.60;;;;;;5004654;28;20026;-59
2022/05/28 04:09:18;;;;;;;3.83;1.15;;;9.00;93.40;;;;;;5010387;28;20057;-59
2022/05/28 04:11:45;;;;;;;4.10;0.77;;;9.10;93.60;;;;;;5006926;28;20034;-59
2022/05/28 04:14:10;;;;;;;1.77;0.80;;;9.20;93.60;;;;;;5010134;28;20029;-59
2022/05/28 04:16:37;;;;;;;2.40;1.02;;;9.20;93.60;;;;;;5007980;28;20126;-59
2022/05/28 04:19:03;;;;;;;7.93;2.00;;;9.10;93.60;;;;;;5022652;28;20022;-61
2022/05/28 04:21:29;;;;;;;5.20;1.15;;;9.00;93.80;;;;;;5010388;28;20473;-59
2022/05/28 04:23:55;;;;;;;6.85;1.02;;;9.00;93.90;;;;;;5008281;28;20091;-59
2022/05/28 04:26:21;;;;;;;3.60;1.13;;;9.10;93.90;;;;;;5010054;28;20079;-59
2022/05/28 04:28:46;;;;;;;4.07;1.00;;;9.10;93.70;;;;;;5008064;28;20026;-59
2022/05/28 04:31:12;;;;;;;3.92;1.17;;;9.10;93.80;;;;;;5010061;28;20418;-59
2022/05/28 04:33:38;;;;;;;4.25;0.80;;;9.10;93.60;;;;;;5008121;28;20036;-58
2022/05/28 04:36:04;;;;;;;3.17;1.02;;;9.10;93.40;;;;;;5007659;28;20048;-59
2022/05/28 04:38:30;;;;;;;2.53;0.70;;;9.10;93.70;;;;;;5009832;28;20117;-59
2022/05/28 04:40:55;;;;;;;3.25;0.70;;;9.20;93.40;;;;;;5008262;28;20121;-59
2022/05/28 04:43:21;;;;;;;7.13;1.98;;;9.20;93.40;;;;;;5009212;28;20104;-59
2022/05/28 04:45:47;;;;;;;1.95;0.88;;;9.20;93.40;;;;;;5001751;28;20098;-60
2022/05/28 04:48:14;;;;;;;2.70;1.13;;;9.30;93.20;;;;;;5001757;28;20038;-59
2022/05/28 04:50:40;;;;;;;4.85;1.25;;;9.30;93.40;;;;;;5010126;28;20022;-59
2022/05/28 04:53:06;;;;;;;6.40;0.90;;;9.30;93.20;;;;;;5006817;28;20405;-59
2022/05/28 04:55:31;;;;;;;7.63;1.10;;;9.30;92.70;;;;;;5009053;28;20026;-59
2022/05/28 04:57:57;;;;;;;9.60;1.48;;;9.30;92.80;;;;;;5007544;28;20029;-59
2022/05/28 05:00:26;;;;;;;3.38;0.75;;;9.40;92.90;;;;;;5007990;28;20030;-59
2022/05/28 05:02:52;;;;;;;4.00;0.80;;;9.40;92.70;;;;;;5007669;28;20025;-59
2022/05/28 05:05:18;;;;;;;3.20;0.57;;;9.40;93.00;;;;;;5003606;28;20060;-59
2022/05/28 05:07:44;;;;;;;7.32;0.93;;;9.30;93.40;;;;;;5007678;28;20474;-59
2022/05/28 05:10:11;;;;;;;3.35;0.98;;;9.40;93.30;;;;;;5009515;28;20037;-57
2022/05/28 05:12:37;;;;;;;6.10;1.38;;;9.40;93.60;;;;;;5009131;28;20541;-57
2022/05/28 05:15:03;;;;;;;3.10;0.90;;;9.40;93.40;;;;;;5003745;28;20079;-57
2022/05/28 05:17:29;;;;;;;3.70;0.90;;;9.50;93.30;;;;;;5009995;28;20033;-58
2022/05/28 05:19:54;;;;;;;3.47;0.75;;;9.40;93.20;;;;;;5011576;28;20026;-57
2022/05/28 05:22:20;;;;;;;3.95;1.00;;;9.50;93.20;;;;;;5007636;28;20493;-57
2022/05/28 05:24:46;;;;;;;7.68;1.00;;;9.40;93.30;;;;;;5005006;28;20022;-59
2022/05/28 05:27:13;;;;;;;3.83;1.02;;;9.40;93.40;;;;;;5006277;28;20038;-59
2022/05/28 05:29:39;;;;;;;2.42;0.98;;;9.40;93.40;;;;;;5011567;28;20030;-58
2022/05/28 05:32:06;;;;;;;4.10;0.70;;;9.40;93.20;;;;;;5010474;28;20052;-58
2022/05/28 05:34:32;;;;;;;3.70;1.02;;;9.40;93.50;;;;;;5004227;28;20021;-58
2022/05/28 05:36:58;;;;;;;9.80;1.27;;;9.40;93.50;;;;;;5010657;28;20033;-58
2022/05/28 05:39:24;;;;;;;9.93;2.65;;;9.40;93.50;;;;;;5013418;28;20466;-57
2022/05/28 05:41:49;;;;;;;4.18;1.00;;;9.50;93.80;;;;;;5013601;28;20028;-58
2022/05/28 05:44:16;;;;;;;5.55;0.82;;;9.40;93.70;;;;;;5018574;28;20100;-58
2022/05/28 05:46:43;;;;;;;4.05;0.90;;;9.40;94.00;;;;;;5020611;28;20120;-57
2022/05/28 05:49:10;;;;;;;10.02;1.30;;;9.40;93.50;;;;;;5011240;28;20040;-57
2022/05/28 05:51:44;;;;;;;5.60;0.90;;;9.50;93.60;;;;;;5019809;28;20057;-58
2022/05/28 05:54:11;;;;;;;6.30;1.10;;;9.50;93.60;;;;;;5012069;28;20509;-58
2022/05/28 05:56:37;;;;;;;4.07;1.45;;;9.60;93.60;;;;;;5017414;28;20029;-57
2022/05/28 05:59:03;;;;;;;2.90;1.00;;;9.60;93.30;;;;;;5011117;28;20405;-58
2022/05/28 06:01:29;;;;;;;4.63;1.10;;;9.60;93.50;;;;;;5014652;28;20028;-58
2022/05/28 06:03:54;;;;;;;4.63;1.33;;;9.60;93.20;;;;;;5017118;28;20029;-58
2022/05/28 06:06:21;;;;;;;3.63;0.70;;;9.60;93.80;;;;;;5015796;28;20508;-58
2022/05/28 06:08:47;;;;;;;4.88;1.02;;;9.60;93.40;;;;;;5021971;28;20112;-58
2022/05/28 06:11:13;;;;;;;6.57;1.25;;;9.70;93.90;;;;;;5015204;28;20122;-58
2022/05/28 06:13:39;;;;;;;2.80;0.93;;;9.80;93.60;;;;;;5007068;28;20055;-58
2022/05/28 06:16:05;;;;;;;6.75;1.17;;;9.80;93.50;;;;;;5015934;28;20599;-58
2022/05/28 06:18:32;;;;;;;9.27;1.42;;;9.80;93.90;;;;;;5022047;28;20548;-58
2022/05/28 06:20:59;;;;;;;4.47;1.10;;;9.90;94.00;;;;;;5010712;28;20025;-59
2022/05/28 06:23:26;;;;;;;8.60;1.63;;;9.90;93.90;;;;;;5014064;28;20032;-59
2022/05/28 06:25:51;;;;;;;5.07;1.10;;;10.00;93.90;;;;;;5004793;28;20144;-61
2022/05/28 06:28:17;;;;;;;3.88;1.10;;;10.10;94.00;;;;;;5013791;28;20108;-59
2022/05/28 06:30:44;;;;;;;6.85;1.30;;;10.10;94.00;;;;;;5012675;28;20034;-60
2022/05/28 06:33:12;;;;;;;4.45;1.00;;;10.20;93.70;;;;;;5011992;28;20489;-61
2022/05/28 06:35:38;;;;;;;4.30;0.80;;;10.20;93.80;;;;;;5017458;28;20377;-58
2022/05/28 06:38:04;;;;;;;6.43;0.93;;;10.30;93.80;;;;;;5015654;28;20034;-58
2022/05/28 06:40:31;;;;;;;5.32;0.95;;;10.40;93.60;;;;;;5011762;28;20030;-59
2022/05/28 06:42:57;;;;;;;6.90;1.05;;;10.50;92.80;;;;;;5009543;28;20065;-58
2022/05/28 06:45:24;;;;;;;11.13;1.23;;;10.60;92.90;;;;;;5011786;28;20041;-59
2022/05/28 06:47:50;;;;;;;6.18;1.15;;;10.70;92.40;;;;;;5010399;28;20022;-58
2022/05/28 06:53:03;;;;;;;6.72;0.98;;;10.90;92.00;;;;;;5023063;28;20068;-60
2022/05/28 06:55:29;;;;;;;8.40;1.15;;;11.00;91.50;;;;;;5014116;28;20030;-62
2022/05/28 06:57:55;;;;;;;8.10;1.45;;;11.10;91.10;;;;;;5002333;28;20017;-61
2022/05/28 07:00:21;;;;;;;1.67;0.77;;;11.10;91.20;;;;;;5002612;28;20067;-59
2022/05/28 07:02:47;;;;;;;5.10;1.33;;;11.10;91.40;;;;;;5001706;28;20030;-59
2022/05/28 07:05:14;;;;;;;6.35;1.40;;;11.10;91.00;;;;;;5001719;28;20022;-58
2022/05/28 07:07:41;;;;;;;3.03;1.08;;;11.20;91.50;;;;;;5002087;28;20059;-59
2022/05/28 07:10:07;;;;;;;5.65;1.00;;;11.20;91.80;;;;;;5000074;28;20038;-59
2022/05/28 07:12:33;;;;;;;5.05;1.65;;;11.20;90.90;;;;;;5002402;28;21673;-59
2022/05/28 07:14:59;;;;;;;7.93;1.00;;;11.30;91.10;;;;;;5001047;28;20061;-59
2022/05/28 07:17:25;;;;;;;2.60;0.70;;;11.40;91.00;;;;;;5007555;28;20061;-58
2022/05/28 07:19:50;;;;;;;4.95;0.75;;;11.40;90.80;;;;;;5008974;28;20033;-59
2022/05/28 07:22:17;;;;;;;5.95;0.90;;;11.50;89.90;;;;;;5003886;28;20062;-58
2022/05/28 07:24:43;;;;;;;6.30;1.00;;;11.60;90.00;;;;;;5021530;28;20029;-58
2022/05/28 07:27:11;;;;;;;4.63;1.35;;;11.70;89.40;;;;;;5008068;28;20068;-58
2022/05/28 07:29:37;;;;;;;7.20;0.82;;;11.70;86.80;;;;;;5010880;28;20227;-58
2022/05/28 07:32:03;;;;;;;2.60;0.85;;;11.80;87.90;;;;;;5008034;28;20060;-58
2022/05/28 07:34:29;;;;;;;5.97;0.80;;;11.80;87.90;;;;;;5012989;28;20033;-59
2022/05/28 07:36:55;;;;;;;5.57;1.13;;;11.90;87.40;;;;;;5006902;28;20394;-59
2022/05/28 07:39:20;;;;;;;11.43;1.35;;;12.00;87.80;;;;;;5006585;28;20401;-59
2022/05/28 07:41:46;;;;;;;4.05;1.00;;;12.00;87.40;;;;;;5005346;28;20038;-62
2022/05/28 07:44:12;;;;;;;4.22;0.65;;;12.10;87.00;;;;;;5002735;28;20084;-59
2022/05/28 07:46:37;;;;;;;4.45;0.70;;;12.20;86.00;;;;;;5006197;28;20022;-59
2022/05/28 07:49:05;;;;;;;5.65;0.80;;;12.20;85.20;;;;;;5008647;28;20040;-60
2022/05/28 07:51:30;;;;;;;6.93;1.38;;;12.30;85.20;;;;;;5017571;28;20120;-59
2022/05/28 07:53:56;;;;;;;4.03;0.80;;;12.50;85.60;;;;;;5012848;28;20067;-59
2022/05/28 07:56:22;;;;;;;8.35;0.70;;;12.50;84.70;;;;;;5012669;28;20472;-59
2022/05/28 07:58:50;;;;;;;3.10;0.40;;;12.60;84.60;;;;;;5008010;28;20508;-59
2022/05/28 08:01:21;;;;;;;3.42;0.80;;;12.60;85.30;;;;;;5016949;28;20030;-58
2022/05/28 08:03:48;;;;;;;5.40;1.55;;;12.70;85.50;;;;;;5007391;28;20536;-58
2022/05/28 08:06:14;;;;;;;3.00;0.75;;;12.80;85.70;;;;;;5007773;28;20061;-59
2022/05/28 08:08:41;;;;;;;2.85;0.70;;;12.90;83.50;;;;;;5014286;28;20022;-59
2022/05/28 08:11:08;;;;;;;2.67;0.50;;;13.00;83.30;;;;;;5010640;28;20042;-59
2022/05/28 08:13:34;;;;;;;3.17;1.02;;;13.00;82.40;;;;;;5008767;28;20096;-59
2022/05/28 08:16:00;;;;;;;5.53;0.90;;;13.10;82.70;;;;;;5012792;28;20017;-59
2022/05/28 08:18:26;;;;;;;2.50;1.33;;;13.10;80.40;;;;;;5012354;28;20036;-59
2022/05/28 08:23:39;;;;;;;4.45;0.70;;;13.30;80.00;;;;;;5011144;28;20079;-59
2022/05/28 08:26:05;;;;;;;3.40;1.23;;;13.40;78.30;;;;;;5009556;28;20117;-58
2022/05/28 08:28:31;;;;;;;4.35;0.70;;;13.40;79.00;;;;;;5009823;28;20030;-59
2022/05/28 08:30:57;;;;;;;4.53;0.70;;;13.50;76.90;;;;;;5012467;28;20049;-59
2022/05/28 08:33:22;;;;;;;4.32;0.70;;;13.60;77.60;;;;;;5012890;28;20034;-59
2022/05/28 08:35:50;;;;;;;7.00;0.98;;;13.70;76.30;;;;;;5007466;28;20087;-59
2022/05/28 08:38:18;;;;;;;4.60;0.52;;;13.80;79.40;;;;;;5016041;28;20029;-59
2022/05/28 08:40:56;;;;;;;2.53;0.40;;;13.90;76.90;;;;;;5012132;28;20033;-59
2022/05/28 08:43:26;;;;;;;5.95;1.52;;;13.90;74.40;;;;;;5011420;28;20504;-59
2022/05/28 08:45:52;;;;;;;3.80;1.50;;;14.00;75.90;;;;;;5007439;28;20182;-59
2022/05/28 08:48:39;;;;;;;5.85;0.77;;;14.10;73.70;;;;;;5015125;28;20112;-58
2022/05/28 08:51:14;;;;;;;6.05;0.70;;;14.20;73.70;;;;;;5007648;28;20117;-58
2022/05/28 08:53:46;;;;;;;3.03;0.50;;;14.30;73.20;;;;;;5016386;28;20064;-58
2022/05/28 08:56:14;;;;;;;;;;;14.40;70.50;;;;;;5013120;28;20029;-58
2022/05/28 08:58:41;;;;;;;4.25;0.90;;;14.40;69.50;;;;;;5012331;28;19916;-58
2022/05/28 09:01:16;;;;;;;4.50;0.70;;;14.50;72.30;;;;;;5011099;28;20068;-61
2022/05/28 09:03:50;;;;;;;3.38;0.63;;;14.60;69.60;;;;;;5011029;28;20060;-58
2022/05/28 09:06:20;;;;;;;3.50;0.80;;;14.60;68.30;;;;;;5009891;28;20021;-58
2022/05/28 09:08:52;;;;;;;6.68;1.10;;;14.80;68.40;;;;;;5012744;28;20377;-59
2022/05/28 09:11:20;;;;;;;;;;;15.00;69.90;;;;;;5014515;28;20561;-59
2022/05/28 09:13:51;;;;;;;4.13;1.00;;;15.10;67.80;;;;;;4995378;28;19924;-59
2022/05/28 09:16:26;;;;;;;5.07;0.98;;;15.20;66.70;;;;;;5007558;28;20026;-60
2022/05/28 09:18:54;;;;;;;5.05;0.95;;;15.20;65.10;;;;;;5016208;28;20071;-59
2022/05/28 09:21:21;;;;;;;5.88;1.00;;;15.50;66.60;;;;;;5009892;28;20037;-59
2022/05/28 09:23:54;;;;;;;2.15;0.70;;;15.60;64.70;;;;;;5012424;28;20022;-59
2022/05/28 09:26:32;;;;;;;5.25;0.88;;;15.70;62.70;;;;;;5011690;28;20045;-60
2022/05/28 09:29:00;;;;;;;1.75;0.85;;;15.70;65.10;;;;;;5008430;28;20045;-58
2022/05/28 09:31:29;;;;;;;6.78;0.75;;;15.70;62.80;;;;;;5006971;28;20050;-58
2022/05/28 09:34:30;;;;;;;5.05;1.05;;;15.70;64.20;;;;;;5008695;28;20030;-59
2022/05/28 09:37:08;;;;;;;4.53;0.63;;;16.00;60.50;;;;;;5010605;28;20029;-58
2022/05/28 09:39:58;;;;;;;4.63;0.70;;;16.30;59.40;;;;;;5010264;28;20537;-59
2022/05/28 09:42:41;;;;;;;8.45;1.33;;;16.60;58.60;;;;;;5005998;28;20053;-59
2022/05/28 09:45:31;;;;;;;3.60;0.90;;;16.80;58.00;;;;;;5001725;28;20033;-59
2022/05/28 09:47:57;;;;;;;6.22;1.80;;;17.00;58.00;;;;;;5008872;28;20076;-59
2022/05/28 09:50:28;;;;;;;1.75;0.70;;;16.80;57.10;;;;;;5016052;28;20404;-59
2022/05/28 09:56:09;;;;;;;4.05;0.32;;;16.60;57.00;;;;;;5013307;28;20037;-57
2022/05/28 09:58:39;;;;;;;0.82;0.30;;;17.00;56.60;;;;;;5008358;28;20057;-59
2022/05/28 10:01:26;;;;;;;3.50;0.63;;;17.10;56.50;;;;;;5007286;28;20025;-59
2022/05/28 10:06:49;;;;;;;2.83;0.40;;;16.80;56.80;;;;;;5013132;28;20032;-60
2022/05/28 10:09:21;;;;;;;3.05;0.40;;;16.80;56.40;;;;;;5018732;28;20022;-59
2022/05/28 10:12:12;;;;;;;6.18;0.52;;;17.00;56.50;;;;;;5018717;28;20042;-60
2022/05/28 10:14:37;;;;;;;1.90;0.80;;;17.40;56.00;;;;;;5011390;28;20041;-59
2022/05/28 10:17:04;;;;;;;2.58;0.50;;;17.40;55.00;;;;;;5014987;28;20050;-59
2022/05/28 10:19:40;;;;;;;3.60;1.13;;;17.30;54.60;;;;;;5020831;28;20095;-59
2022/05/28 10:22:12;;;;;;;2.65;0.65;;;17.30;55.60;;;;;;5013613;28;20038;-59
2022/05/28 10:24:49;;;;;;;5.13;0.75;;;17.60;55.80;;;;;;5004421;28;20375;-59
2022/05/28 10:27:47;;;;;;;3.15;0.60;;;17.80;54.90;;;;;;5005307;28;20084;-60
2022/05/28 10:30:29;;;;;;;5.93;1.00;;;18.30;54.40;;;;;;5013192;28;20101;-60
2022/05/28 10:32:55;;;;;;;2.80;0.63;;;18.80;53.00;;;;;;5009244;28;20104;-60
2022/05/28 10:35:23;;;;;;;2.28;0.47;;;18.70;51.80;;;;;;5015487;28;20038;-58
2022/05/28 10:37:49;;;;;;;3.05;1.17;;;18.60;52.20;;;;;;5014027;28;20474;-60
2022/05/28 10:40:23;;;;;;;3.65;0.95;;;18.40;52.70;;;;;;5012320;28;20026;-59
2022/05/28 10:42:52;;;;;;;3.78;0.70;;;18.50;53.30;;;;;;5013935;28;20033;-58
2022/05/28 10:45:19;;;;;;;3.83;0.60;;;18.60;51.90;;;;;;5008287;28;20048;-59
2022/05/28 10:48:02;;;;;;;3.17;0.80;;;18.60;51.30;;;;;;5013273;28;20025;-60
2022/05/28 10:50:37;;;;;;;5.55;1.10;;;18.50;51.00;;;;;;5013557;28;20026;-59
2022/05/28 10:53:12;;;;;;;2.10;0.40;;;18.60;51.60;;;;;;5013586;28;20078;-59
2022/05/28 10:55:43;;;;;;;4.22;0.60;;;18.80;51.00;;;;;;5015519;28;20438;-60
2022/05/28 10:58:30;;;;;;;1.92;0.75;;;18.70;52.20;;;;;;5004872;28;20030;-60
2022/05/28 11:01:21;;;;;;;1.75;0.55;;;18.70;52.60;;;;;;5011583;28;20124;-60
2022/05/28 11:03:53;;;;;;;4.53;1.93;;;18.90;52.00;;;;;;5009031;28;20025;-59
2022/05/28 11:06:56;;;;;;;3.95;0.93;;;18.90;51.40;;;;;;5011530;28;20271;-59
2022/05/28 11:09:27;;;;;;;2.47;0.77;;;19.40;50.90;;;;;;5004881;28;20061;-60
2022/05/28 11:12:31;;;;;;;6.22;2.28;;;20.00;48.40;;;;;;5008788;28;20040;-59
2022/05/28 11:15:17;;;;;;;6.30;0.63;;;20.30;48.00;;;;;;5008764;28;20441;-59
2022/05/28 11:18:17;;;;;;;6.43;0.95;;;20.30;47.60;;;;;;5023625;28;20115;-59
2022/05/28 11:21:20;;;;;;;1.38;0.65;;;20.00;48.20;;;;;;5020981;28;20500;-59
2022/05/28 11:24:04;;;;;;;1.48;0.60;;;20.60;46.30;;;;;;5012302;28;20030;-59
2022/05/28 11:26:59;;;;;;;2.05;0.70;;;21.00;45.00;;;;;;5005983;28;20029;-58
2022/05/28 11:29:35;;;;;;;3.45;0.63;;;20.60;47.50;;;;;;5010403;28;20061;-59
2022/05/28 11:32:07;;;;;;;4.38;0.70;;;20.70;47.10;;;;;;5007946;28;20096;-60
2022/05/28 11:35:02;;;;;;;2.33;0.68;;;21.10;46.30;;;;;;5015901;28;20018;-60
2022/05/28 11:37:42;;;;;;;5.45;0.93;;;21.30;44.60;;;;;;5013001;28;20128;-59
2022/05/28 11:40:34;;;;;;;4.22;0.52;;;20.90;44.30;;;;;;5022091;28;20025;-58
2022/05/28 11:43:21;;;;;;;4.78;1.13;;;20.70;44.10;;;;;;5009192;28;20041;-59
2022/05/28 11:46:27;;;;;;;2.33;0.70;;;20.50;45.10;;;;;;5018539;28;20025;-60
2022/05/28 11:52:19;;;;;;;7.60;1.15;;;20.40;45.80;;;;;;5003548;28;20092;-59
2022/05/28 11:55:11;;;;;;;6.72;1.00;;;20.30;45.80;;;;;;5014601;28;20029;-59
2022/05/28 11:57:52;;;;;;;4.97;1.17;;;20.90;45.90;;;;;;5013999;28;20058;-60
2022/05/28 12:00:21;;;;;;;2.00;0.50;;;21.50;44.00;;;;;;5013541;28;20103;-60
2022/05/28 12:02:59;;;;;;;7.15;1.50;;;22.20;42.40;;;;;;5012959;28;20095;-60
2022/05/28 12:05:43;;;;;;;5.07;1.30;;;22.30;42.30;;;;;;5019586;28;20433;-60
2022/05/28 12:08:24;;;;;;;3.25;0.63;;;21.80;42.70;;;;;;5009846;28;20041;-59
2022/05/28 12:10:55;;;;;;;4.50;1.00;;;21.20;44.00;;;;;;5016236;28;20030;-59
2022/05/28 12:13:36;;;;;;;3.20;1.05;;;21.00;44.60;;;;;;5010885;28;20478;-58
2022/05/28 12:16:10;;;;;;;5.57;0.73;;;20.70;45.10;;;;;;5013001;28;20045;-59
2022/05/28 12:18:40;;;;;;;3.50;0.80;;;20.60;45.20;;;;;;5020738;28;20489;-59
2022/05/28 12:21:05;;;;;;;5.35;1.00;;;20.30;46.00;;;;;;5013099;28;20051;-59
2022/05/28 12:23:36;;;;;;;2.25;0.73;;;19.60;46.50;;;;;;5008735;28;20022;-60
2022/05/28 12:29:47;;;;;;;3.65;0.50;;;21.40;45.20;;;;;;5010239;28;20148;-60
2022/05/28 12:32:19;;;;;;;4.07;1.07;;;23.10;41.40;;;;;;5009249;28;20061;-59
2022/05/28 12:35:07;;;;;;;2.88;0.52;;;23.90;38.60;;;;;;5014497;28;20392;-60
2022/05/28 12:37:36;;;;;;;1.77;0.68;;;24.20;36.30;;;;;;5015275;28;20030;-60
2022/05/28 12:40:16;;;;;;;3.15;1.00;;;24.80;36.30;;;;;;5012194;28;20030;-60
2022/05/28 12:42:42;;;;;;;3.42;0.85;;;23.80;35.90;;;;;;5013010;28;20037;-59
2022/05/28 12:45:16;;;;;;;2.58;1.45;;;22.80;37.40;;;;;;5009434;28;20033;-59
2022/05/28 12:47:43;;;;;;;3.90;0.90;;;22.10;39.40;;;;;;5013134;28;20457;-59
2022/05/28 12:50:59;;;;;;;3.28;0.57;;;20.90;42.60;;;;;;5014235;28;20113;-59
2022/05/28 12:53:27;;;;;;;2.95;0.70;;;20.60;43.70;;;;;;5015401;28;20041;-59
2022/05/28 12:56:02;;;;;;;2.30;0.73;;;20.60;44.00;;;;;;5006892;28;20026;-59
2022/05/28 12:58:30;;;;;;;1.95;0.60;;;20.60;43.90;;;;;;5009740;28;20385;-59
2022/05/28 13:01:00;;;;;;;6.68;0.73;;;20.90;43.30;;;;;;5007863;28;20053;-62
2022/05/28 13:03:31;;;;;;;3.45;0.63;;;21.50;42.70;;;;;;5016946;28;20049;-59
2022/05/28 13:06:28;;;;;;;3.75;0.82;;;21.90;40.20;;;;;;5013999;28;20022;-59
2022/05/28 13:09:07;;;;;;;4.57;0.77;;;21.70;40.20;;;;;;5007184;28;20034;-59
2022/05/28 13:11:53;;;;;;;3.83;0.90;;;21.60;40.10;;;;;;5009017;28;20030;-59
2022/05/28 13:14:57;;;;;;;2.28;0.60;;;21.60;40.40;;;;;;5008657;28;20034;-61
2022/05/28 13:17:41;;;;;;;3.17;0.90;;;22.00;39.80;;;;;;5019373;28;20037;-59
2022/05/28 13:20:13;;;;;;;1.02;0.40;;;23.70;37.40;;;;;;5009384;28;20479;-59
2022/05/28 13:22:54;;;;;;;3.92;0.90;;;24.90;34.50;;;;;;5004749;28;20061;-60
2022/05/28 13:25:35;;;;;;;5.32;0.70;;;24.60;34.80;;;;;;5021313;28;20453;-59
2022/05/28 13:28:23;;;;;;;3.30;0.60;;;23.30;36.40;;;;;;5004576;28;20109;-60
2022/05/28 13:30:54;;;;;;;3.65;0.80;;;22.90;39.90;;;;;;5007217;28;20073;-59